Terminal Aerodrome Forecast
Issued by NWS Memphis, TN

Home | Current Version | Previous Version | Text Only | Print | Product List | Glossary On
Versions: 1 2 3 4 5 6 7 8 9 10 11 12 13 14 15 16 17 18 19 20 21 22 23 24 25 26 27 28 29 30 31 32 33 34
669
FTUS44 KMEG 181725
TAFMEM
TAF
KMEM 181725Z 1818/1924 22020G30KT P6SM VCSH BKN025 OVC045
     FM182000 26030G40KT 3SM TSRA SCT009 OVC015CB
     FM182130 30024G34KT P6SM VCSH BKN025 BKN150
     FM190100 33016G24KT P6SM FEW025 SCT150
     FM190400 33009KT P6SM SKC
     FM191500 33011G17KT P6SM SKC=

USA.gov is the U.S. government's official web portal to all federal, state and local government web resources and services.